createdAt,value
2023-03-05T00:01:33.264Z,2.97
2023-03-05T00:04:02.892Z,3.05
2023-03-05T00:06:32.782Z,3.42
2023-03-05T00:09:01.242Z,2.22
2023-03-05T00:11:31.565Z,4.00
2023-03-05T00:14:01.125Z,2.75
2023-03-05T00:16:30.962Z,3.35
2023-03-05T00:19:02.365Z,2.03
2023-03-05T00:21:32.361Z,1.40
2023-03-05T00:24:02.171Z,1.83
2023-03-05T00:26:31.673Z,2.03
2023-03-05T00:28:59.797Z,1.40
2023-03-05T00:31:31.291Z,1.92
2023-03-05T00:34:01.795Z,1.17
2023-03-05T00:36:30.616Z,2.00
2023-03-05T00:38:59.055Z,1.80
2023-03-05T00:41:28.214Z,1.30
2023-03-05T00:43:56.347Z,2.10
2023-03-05T00:46:27.534Z,1.13
2023-03-05T00:48:57.322Z,1.48
2023-03-05T00:51:26.235Z,1.65
2023-03-05T00:53:54.442Z,1.63
2023-03-05T00:56:22.982Z,1.30
2023-03-05T00:58:51.028Z,1.73
2023-03-05T01:01:19.076Z,1.80
2023-03-05T01:03:47.354Z,1.25
2023-03-05T01:06:17.573Z,1.50
2023-03-05T01:08:46.143Z,1.63
2023-03-05T01:11:15.187Z,2.03
2023-03-05T01:13:43.361Z,1.50
2023-03-05T01:16:11.861Z,2.15
2023-03-05T01:18:41.712Z,1.50
2023-03-05T01:21:10.045Z,1.30
2023-03-05T01:23:39.490Z,1.75
2023-03-05T01:26:08.553Z,1.85
2023-03-05T01:28:38.253Z,1.73
2023-03-05T01:31:09.409Z,1.30
2023-03-05T01:33:38.060Z,1.25
2023-03-05T01:36:10.103Z,1.00
2023-03-05T01:38:39.581Z,0.85
2023-03-05T01:41:07.971Z,1.50
2023-03-05T01:43:35.940Z,0.90
2023-03-05T01:46:30.360Z,1.35
2023-03-05T01:49:13.767Z,0.95
2023-03-05T01:51:46.978Z,1.10
2023-03-05T01:54:20.234Z,1.52
2023-03-05T01:56:51.199Z,1.10
2023-03-05T01:59:20.694Z,0.60
2023-03-05T02:01:54.102Z,0.95
2023-03-05T02:04:24.701Z,1.15
2023-03-05T02:06:52.640Z,0.90
2023-03-05T02:09:24.058Z,0.73
2023-03-05T02:11:52.878Z,1.13
2023-03-05T02:14:21.294Z,1.05
2023-03-05T02:16:49.459Z,1.20
2023-03-05T02:19:17.729Z,1.83
2023-03-05T02:21:48.870Z,0.93
2023-03-05T02:24:19.835Z,1.75
2023-03-05T02:26:48.632Z,1.80
2023-03-05T02:29:20.099Z,2.00
2023-03-05T02:31:48.195Z,1.92
2023-03-05T02:34:16.244Z,1.50
2023-03-05T02:36:44.321Z,2.35
2023-03-05T02:39:15.054Z,1.75
2023-03-05T02:41:43.607Z,1.77
2023-03-05T02:44:12.361Z,1.70
2023-03-05T02:46:40.520Z,1.60
2023-03-05T02:49:09.211Z,2.60
2023-03-05T02:51:37.554Z,1.52
2023-03-05T02:54:05.718Z,2.10
2023-03-05T02:56:35.152Z,2.60
2023-03-05T02:59:03.196Z,1.50
2023-03-05T03:01:31.335Z,1.90
2023-03-05T03:03:59.346Z,2.05
2023-03-05T03:06:27.498Z,1.40
2023-03-05T03:08:55.486Z,2.13
2023-03-05T03:11:23.534Z,2.17
2023-03-05T03:13:52.899Z,2.22
2023-03-05T03:16:20.990Z,1.83
2023-03-05T03:18:49.136Z,2.15
2023-03-05T03:21:23.214Z,1.95
2023-03-05T03:23:51.202Z,1.35
2023-03-05T03:26:19.590Z,2.15
2023-03-05T03:28:47.576Z,1.15
2023-03-05T03:31:17.924Z,1.75
2023-03-05T03:33:45.947Z,1.40
2023-03-05T03:36:14.144Z,1.10
2023-03-05T03:38:42.135Z,1.60
2023-03-05T03:41:10.601Z,1.40
2023-03-05T03:43:38.862Z,1.55
2023-03-05T03:46:08.136Z,1.40
2023-03-05T03:48:37.536Z,1.60
2023-03-05T03:51:07.091Z,1.30
2023-03-05T03:53:35.142Z,0.80
2023-03-05T03:56:29.781Z,1.00
2023-03-05T03:58:57.668Z,0.88
2023-03-05T04:01:25.686Z,1.05
2023-03-05T04:03:55.103Z,0.80
2023-03-05T04:06:23.243Z,0.70
2023-03-05T04:08:51.304Z,0.90
2023-03-05T04:11:19.723Z,0.50
2023-03-05T04:13:47.844Z,1.25
2023-03-05T04:16:16.202Z,0.70
2023-03-05T04:18:44.560Z,0.93
2023-03-05T04:21:14.105Z,0.63
2023-03-05T04:23:42.408Z,0.70
2023-03-05T04:26:10.436Z,0.70
2023-03-05T04:28:38.444Z,0.70
2023-03-05T04:31:06.707Z,1.67
2023-03-05T04:33:34.841Z,0.77
2023-03-05T04:36:02.886Z,0.47
2023-03-05T04:38:32.166Z,0.57
2023-03-05T04:41:00.144Z,1.08
2023-03-05T04:43:28.137Z,0.80
2023-03-05T04:45:56.681Z,0.65
2023-03-05T04:48:24.618Z,1.10
2023-03-05T04:50:52.574Z,0.65
2023-03-05T04:53:20.533Z,0.50
2023-03-05T04:55:53.635Z,0.40
2023-03-05T04:58:21.542Z,0.70
2023-03-05T05:00:49.648Z,0.60
2023-03-05T05:03:17.664Z,0.73
2023-03-05T05:05:45.643Z,0.38
2023-03-05T05:08:13.586Z,0.77
2023-03-05T05:10:41.564Z,0.50
2023-03-05T05:13:10.807Z,0.73
2023-03-05T05:15:40.956Z,0.40
2023-03-05T05:18:08.907Z,1.20
2023-03-05T05:20:36.841Z,0.60
2023-03-05T05:23:04.763Z,0.70
2023-03-05T05:25:32.719Z,0.57
2023-03-05T05:28:00.604Z,0.80
2023-03-05T05:30:29.864Z,0.68
2023-03-05T05:32:58.303Z,1.05
2023-03-05T05:35:26.321Z,0.50
2023-03-05T05:37:54.433Z,0.40
2023-03-05T05:40:22.414Z,0.50
2023-03-05T05:42:50.383Z,0.57
2023-03-05T05:45:18.553Z,0.82
2023-03-05T05:47:47.880Z,0.77
2023-03-05T05:50:16.473Z,0.70
2023-03-05T05:52:44.458Z,0.60
2023-03-05T05:55:13.140Z,0.93
2023-03-05T05:57:41.074Z,0.70
2023-03-05T06:00:12.210Z,1.00
2023-03-05T06:02:40.264Z,1.20
2023-03-05T06:05:13.091Z,0.70
2023-03-05T06:07:41.213Z,0.80
2023-03-05T06:10:10.893Z,1.27
2023-03-05T06:12:38.851Z,0.88
2023-03-05T06:15:08.517Z,0.82
2023-03-05T06:17:36.510Z,0.85
2023-03-05T06:20:05.365Z,0.63
2023-03-05T06:22:37.093Z,1.00
2023-03-05T06:25:05.980Z,0.77
2023-03-05T06:27:35.154Z,0.85
2023-03-05T06:30:03.298Z,0.82
2023-03-05T06:32:31.302Z,0.73
2023-03-05T06:34:59.300Z,0.80
2023-03-05T06:37:27.474Z,0.82
2023-03-05T06:39:56.764Z,0.63
2023-03-05T06:42:24.707Z,0.60
2023-03-05T06:44:52.716Z,1.05
2023-03-05T06:47:20.816Z,0.80
2023-03-05T06:49:48.726Z,0.55
2023-03-05T06:52:16.686Z,1.00
2023-03-05T06:54:44.578Z,0.73
2023-03-05T06:57:13.912Z,0.80
2023-03-05T06:59:41.814Z,0.70
2023-03-05T07:02:12.245Z,0.88
2023-03-05T07:04:40.394Z,0.60
2023-03-05T07:07:08.415Z,0.80
2023-03-05T07:09:42.714Z,0.68
2023-03-05T07:12:11.771Z,0.52
2023-03-05T07:14:41.095Z,0.40
2023-03-05T07:17:09.465Z,0.90
2023-03-05T07:19:38.956Z,0.65
2023-03-05T07:22:08.372Z,0.80
2023-03-05T07:24:36.413Z,0.95
2023-03-05T07:27:04.835Z,1.05
2023-03-05T07:29:32.748Z,0.93
2023-03-05T07:32:02.124Z,0.30
2023-03-05T07:34:30.111Z,0.77
2023-03-05T07:36:58.173Z,1.83
2023-03-05T07:39:26.077Z,1.02
2023-03-05T07:41:54.024Z,1.40
2023-03-05T07:44:29.518Z,0.90
2023-03-05T07:46:57.527Z,0.32
2023-03-05T07:49:26.919Z,0.50
2023-03-05T07:51:54.840Z,0.40
2023-03-05T07:54:22.761Z,0.40
2023-03-05T07:56:50.698Z,0.55
2023-03-05T07:59:18.576Z,1.30
2023-03-05T08:01:47.146Z,0.60
2023-03-05T08:04:15.219Z,0.65
2023-03-05T08:06:44.576Z,0.45
2023-03-05T08:09:12.493Z,0.93
2023-03-05T08:11:41.204Z,0.85
2023-03-05T08:14:09.305Z,0.30
2023-03-05T08:16:37.303Z,0.50
2023-03-05T08:19:05.282Z,0.60
2023-03-05T08:21:36.010Z,0.40
2023-03-05T08:24:07.306Z,0.40
2023-03-05T08:26:37.700Z,0.50
2023-03-05T08:29:05.631Z,1.38
2023-03-05T08:31:34.496Z,0.60
2023-03-05T08:34:03.629Z,0.43
2023-03-05T08:36:32.193Z,0.40
2023-03-05T08:39:00.717Z,0.40
2023-03-05T08:41:30.092Z,0.50
2023-03-05T08:43:58.006Z,0.30
2023-03-05T08:46:26.152Z,0.40
2023-03-05T08:48:54.259Z,0.70
2023-03-05T08:51:25.595Z,0.30
2023-03-05T08:53:54.519Z,0.30
2023-03-05T08:56:22.703Z,0.40
2023-03-05T08:58:53.016Z,0.60
2023-03-05T09:01:22.553Z,0.60
2023-03-05T09:03:50.529Z,0.70
2023-03-05T09:06:18.562Z,0.35
2023-03-05T09:08:46.487Z,0.30
2023-03-05T09:11:14.871Z,0.60
2023-03-05T09:13:42.784Z,0.40
2023-03-05T09:16:14.024Z,0.50
2023-03-05T09:18:42.204Z,0.50
2023-03-05T09:21:12.593Z,0.80
2023-03-05T09:23:41.217Z,0.40
2023-03-05T09:26:11.981Z,0.50
2023-03-05T09:28:40.369Z,0.50
2023-03-05T09:31:09.556Z,0.80
2023-03-05T09:33:39.730Z,0.50
2023-03-05T09:36:21.087Z,0.70
2023-03-05T09:38:49.195Z,0.52
2023-03-05T09:41:24.625Z,1.40
2023-03-05T09:44:00.789Z,3.60
2023-03-05T09:46:39.033Z,6.60
2023-03-05T09:49:17.527Z,1.50
2023-03-05T09:51:47.558Z,0.93
2023-03-05T09:54:18.572Z,0.63
2023-03-05T09:56:49.680Z,0.60
2023-03-05T09:59:28.917Z,0.70
2023-03-05T10:02:02.477Z,1.10
2023-03-05T10:04:44.267Z,0.60
2023-03-05T10:07:17.850Z,0.50
2023-03-05T10:09:49.774Z,0.85
2023-03-05T10:12:25.287Z,0.90
2023-03-05T10:14:53.929Z,0.60
2023-03-05T10:17:56.140Z,0.95
2023-03-05T10:20:38.230Z,2.33
2023-03-05T10:23:24.635Z,1.48
2023-03-05T10:26:23.796Z,0.98
2023-03-05T10:29:03.305Z,1.17
2023-03-05T10:31:58.317Z,2.42
2023-03-05T10:34:47.074Z,0.80
2023-03-05T10:37:38.433Z,4.93
2023-03-05T10:40:26.077Z,0.82
2023-03-05T10:43:01.077Z,0.90
2023-03-05T10:45:34.083Z,0.85
2023-03-05T10:48:10.861Z,0.90
2023-03-05T10:50:43.818Z,0.70
2023-03-05T10:53:27.604Z,0.68
2023-03-05T10:55:57.555Z,0.50
2023-03-05T10:58:26.610Z,1.10
2023-03-05T11:01:04.277Z,1.10
2023-03-05T11:03:50.728Z,1.13
2023-03-05T11:06:32.657Z,0.82
2023-03-05T11:09:28.413Z,1.13
2023-03-05T11:12:15.174Z,1.05
2023-03-05T11:14:45.738Z,0.85
2023-03-05T11:17:27.942Z,0.85
2023-03-05T11:20:31.254Z,1.10
2023-03-05T11:23:10.458Z,0.70
2023-03-05T11:25:53.859Z,0.60
2023-03-05T11:28:32.882Z,0.60
2023-03-05T11:31:07.403Z,0.70
2023-03-05T11:33:36.995Z,0.60
2023-03-05T11:36:21.706Z,0.80
2023-03-05T11:38:54.518Z,0.65
2023-03-05T11:41:30.733Z,0.60
2023-03-05T11:44:00.868Z,0.80
2023-03-05T11:46:29.833Z,1.30
2023-03-05T11:48:59.256Z,0.70
2023-03-05T11:51:32.951Z,1.00
2023-03-05T11:54:07.105Z,0.77
2023-03-05T11:56:39.229Z,0.80
2023-03-05T11:59:15.389Z,0.88
2023-03-05T12:01:46.419Z,0.68
2023-03-05T12:04:14.941Z,1.17
2023-03-05T12:06:46.801Z,0.95
2023-03-05T12:09:20.582Z,1.30
2023-03-05T12:11:52.699Z,1.02
2023-03-05T12:14:25.736Z,0.82
2023-03-05T12:16:59.647Z,0.90
2023-03-05T12:19:41.785Z,0.88
2023-03-05T12:22:19.732Z,1.15
2023-03-05T12:24:48.184Z,0.60
2023-03-05T12:27:32.438Z,0.80
2023-03-05T12:30:01.494Z,0.45
2023-03-05T12:33:00.687Z,0.40
2023-03-05T12:35:31.297Z,0.82
2023-03-05T12:38:26.797Z,0.47
2023-03-05T12:41:10.124Z,3.67
2023-03-05T12:43:39.539Z,1.10
2023-03-05T12:46:25.452Z,0.80
2023-03-05T12:48:53.963Z,0.47
2023-03-05T12:51:37.791Z,0.68
2023-03-05T12:54:30.062Z,1.30
2023-03-05T12:56:59.758Z,0.63
2023-03-05T12:59:39.792Z,0.93
2023-03-05T13:02:26.605Z,0.50
2023-03-05T13:04:59.338Z,0.95
2023-03-05T13:07:27.571Z,0.70
2023-03-05T13:09:57.468Z,0.75
2023-03-05T13:12:27.358Z,0.40
2023-03-05T13:15:03.385Z,0.80
2023-03-05T13:17:35.481Z,0.55
2023-03-05T13:20:23.730Z,0.45
2023-03-05T13:23:05.015Z,0.50
2023-03-05T13:25:33.686Z,0.60
2023-03-05T13:28:04.472Z,0.70
2023-03-05T13:30:34.825Z,0.60
2023-03-05T13:33:06.335Z,0.68
2023-03-05T13:35:35.880Z,0.50
2023-03-05T13:38:22.599Z,0.80
2023-03-05T13:41:06.627Z,0.57
2023-03-05T13:43:34.766Z,0.68
2023-03-05T13:46:04.273Z,0.65
2023-03-05T13:48:32.549Z,0.90
2023-03-05T13:51:00.826Z,0.70
2023-03-05T13:53:31.514Z,0.40
2023-03-05T13:56:01.651Z,0.57
2023-03-05T13:58:52.207Z,1.20
2023-03-05T14:01:28.639Z,1.08
2023-03-05T14:04:00.733Z,0.70
2023-03-05T14:06:31.518Z,2.45
2023-03-05T14:09:06.803Z,0.95
2023-03-05T14:11:35.941Z,3.22
2023-03-05T14:14:10.748Z,2.42
2023-03-05T14:16:41.523Z,0.70
2023-03-05T14:19:34.797Z,0.50
2023-03-05T14:22:03.311Z,4.07
2023-03-05T14:24:31.736Z,1.10
2023-03-05T14:27:05.780Z,1.65
2023-03-05T14:29:34.718Z,0.77
2023-03-05T14:32:07.455Z,5.20
2023-03-05T14:34:38.577Z,1.00
2023-03-05T14:37:16.091Z,1.10
2023-03-05T14:39:50.586Z,0.80
2023-03-05T14:42:30.945Z,0.95
2023-03-05T14:45:01.254Z,0.52
2023-03-05T14:47:30.694Z,0.50
2023-03-05T14:49:58.671Z,1.13
2023-03-05T14:52:28.235Z,0.75
2023-03-05T14:54:56.826Z,0.60
2023-03-05T14:57:28.095Z,1.00
2023-03-05T14:59:56.540Z,0.80
2023-03-05T15:02:26.868Z,0.70
2023-03-05T15:04:56.222Z,0.40
2023-03-05T15:07:27.730Z,0.65
2023-03-05T15:09:55.890Z,0.60
2023-03-05T15:12:25.175Z,0.60
2023-03-05T15:14:54.435Z,0.68
2023-03-05T15:17:24.532Z,1.15
2023-03-05T15:19:53.787Z,0.80
2023-03-05T15:22:25.940Z,0.90
2023-03-05T15:24:54.879Z,0.70
2023-03-05T15:27:30.196Z,1.92
2023-03-05T15:30:00.338Z,0.60
2023-03-05T15:32:34.150Z,0.70
2023-03-05T15:35:02.252Z,0.65
2023-03-05T15:37:31.714Z,0.45
2023-03-05T15:39:59.991Z,0.50
2023-03-05T15:42:28.492Z,0.30
2023-03-05T15:44:56.726Z,0.60
2023-03-05T15:47:24.854Z,0.88
2023-03-05T15:49:53.005Z,1.50
2023-03-05T15:52:21.120Z,0.68
2023-03-05T15:54:50.608Z,0.70
2023-03-05T15:57:22.665Z,0.75
2023-03-05T15:59:51.065Z,0.90
2023-03-05T16:02:19.137Z,0.88
2023-03-05T16:04:47.490Z,0.50
2023-03-05T16:07:16.653Z,0.85
2023-03-05T16:09:48.852Z,0.50
2023-03-05T16:12:22.749Z,0.65
2023-03-05T16:14:52.214Z,0.73
2023-03-05T16:17:22.342Z,0.70
2023-03-05T16:19:54.072Z,0.70
2023-03-05T16:22:23.861Z,0.75
2023-03-05T16:24:51.996Z,4.50
2023-03-05T16:27:21.758Z,2.22
2023-03-05T16:29:51.154Z,1.48
2023-03-05T16:32:19.459Z,0.95
2023-03-05T16:34:47.762Z,0.70
2023-03-05T16:37:20.595Z,0.68
2023-03-05T16:39:49.508Z,1.90
2023-03-05T16:42:21.468Z,1.35
2023-03-05T16:44:50.022Z,1.00
2023-03-05T16:47:18.356Z,1.40
2023-03-05T16:49:46.721Z,1.70
2023-03-05T16:52:19.450Z,0.90
2023-03-05T16:54:48.485Z,1.00
2023-03-05T16:57:17.036Z,1.00
2023-03-05T16:59:46.643Z,1.33
2023-03-05T17:02:15.430Z,1.48
2023-03-05T17:04:43.915Z,0.73
2023-03-05T17:07:12.218Z,1.13
2023-03-05T17:09:40.379Z,1.15
2023-03-05T17:12:09.040Z,0.88
2023-03-05T17:14:37.207Z,0.80
2023-03-05T17:17:09.921Z,1.25
2023-03-05T17:19:41.130Z,14.57
2023-03-05T17:22:10.491Z,11.32
2023-03-05T17:24:42.856Z,9.65
2023-03-05T17:27:13.036Z,3.75
2023-03-05T17:29:41.500Z,1.85
2023-03-05T17:32:10.874Z,1.20
2023-03-05T17:34:38.900Z,1.23
2023-03-05T17:37:07.546Z,1.75
2023-03-05T17:39:35.770Z,2.47
2023-03-05T17:42:03.988Z,0.98
2023-03-05T17:44:32.307Z,4.43
2023-03-05T17:47:00.599Z,1.52
2023-03-05T17:49:30.086Z,2.50
2023-03-05T17:51:58.863Z,2.55
2023-03-05T17:54:27.040Z,4.20
2023-03-05T17:56:58.043Z,2.30
2023-03-05T17:59:26.646Z,2.60
2023-03-05T18:01:54.724Z,1.33
2023-03-05T18:04:24.660Z,1.92
2023-03-05T18:06:54.137Z,2.67
2023-03-05T18:09:22.177Z,2.70
2023-03-05T18:11:50.260Z,3.10
2023-03-05T18:14:18.761Z,2.50
2023-03-05T18:16:47.045Z,3.33
2023-03-05T18:19:15.227Z,2.63
2023-03-05T18:21:43.255Z,2.38
2023-03-05T18:24:12.693Z,2.20
2023-03-05T18:26:40.738Z,4.55
2023-03-05T18:29:08.807Z,3.85
2023-03-05T18:31:36.758Z,3.10
2023-03-05T18:34:04.782Z,4.93
2023-03-05T18:36:33.169Z,2.40
2023-03-05T18:39:01.173Z,5.00
2023-03-05T18:41:31.483Z,5.10
2023-03-05T18:43:59.535Z,2.10
2023-03-05T18:46:27.580Z,2.25
2023-03-05T18:48:55.592Z,1.58
2023-03-05T18:51:24.215Z,1.10
2023-03-05T18:53:54.983Z,1.48
2023-03-05T18:56:23.224Z,1.95
2023-03-05T18:58:53.082Z,2.97
2023-03-05T19:01:21.678Z,2.72
2023-03-05T19:03:50.846Z,1.85
2023-03-05T19:06:19.266Z,2.63
2023-03-05T19:08:50.740Z,2.30
2023-03-05T19:11:21.231Z,2.58
2023-03-05T19:13:50.397Z,2.30
2023-03-05T19:16:21.539Z,3.55
2023-03-05T19:18:59.787Z,3.42
2023-03-05T19:21:27.836Z,3.85
2023-03-05T19:23:55.891Z,2.05
2023-03-05T19:26:23.882Z,1.52
2023-03-05T19:28:51.927Z,2.05
2023-03-05T19:31:21.610Z,1.50
2023-03-05T19:33:49.698Z,1.25
2023-03-05T19:36:17.801Z,1.77
2023-03-05T19:38:47.947Z,2.08
2023-03-05T19:41:17.922Z,1.63
2023-03-05T19:43:46.679Z,2.00
2023-03-05T19:46:15.494Z,1.60
2023-03-05T19:48:44.959Z,2.45
2023-03-05T19:51:14.843Z,2.03
2023-03-05T19:53:43.895Z,1.85
2023-03-05T19:56:12.894Z,1.60
2023-03-05T19:58:45.324Z,2.05
2023-03-05T20:01:15.483Z,2.38
2023-03-05T20:03:46.768Z,2.08
2023-03-05T20:06:15.741Z,1.90
2023-03-05T20:08:44.476Z,1.63
2023-03-05T20:11:14.544Z,1.25
2023-03-05T20:13:43.000Z,1.65
2023-03-05T20:16:16.603Z,1.50
2023-03-05T20:18:46.937Z,2.45
2023-03-05T20:21:21.380Z,1.90
2023-03-05T20:23:49.676Z,1.65
2023-03-05T20:26:17.665Z,1.80
2023-03-05T20:28:45.911Z,1.67
2023-03-05T20:31:13.978Z,2.13
2023-03-05T20:33:42.005Z,1.60
2023-03-05T20:36:11.545Z,1.70
2023-03-05T20:38:39.859Z,2.08
2023-03-05T20:41:09.741Z,1.67
2023-03-05T20:43:41.213Z,1.80
2023-03-05T20:46:16.478Z,1.85
2023-03-05T20:48:44.736Z,2.03
2023-03-05T20:51:15.791Z,1.77
2023-03-05T20:53:44.150Z,1.90
2023-03-05T20:56:12.053Z,1.85
2023-03-05T20:58:40.129Z,1.80
2023-03-05T21:01:08.172Z,1.42
2023-03-05T21:03:38.763Z,1.60
2023-03-05T21:06:13.981Z,2.08
2023-03-05T21:08:44.642Z,1.90
2023-03-05T21:11:14.457Z,2.20
2023-03-05T21:13:44.203Z,2.05
2023-03-05T21:16:16.339Z,1.90
2023-03-05T21:18:44.482Z,1.98
2023-03-05T21:21:13.470Z,1.95
2023-03-05T21:23:43.086Z,1.20
2023-03-05T21:26:12.063Z,2.45
2023-03-05T21:28:41.266Z,1.50
2023-03-05T21:31:11.512Z,2.65
2023-03-05T21:33:40.187Z,2.92
2023-03-05T21:36:08.633Z,2.70
2023-03-05T21:38:36.531Z,1.95
2023-03-05T21:41:06.923Z,2.45
2023-03-05T21:43:35.138Z,2.22
2023-03-05T21:46:04.619Z,2.50
2023-03-05T21:48:33.096Z,2.40
2023-03-05T21:51:01.286Z,1.92
2023-03-05T21:53:29.347Z,2.38
2023-03-05T21:56:07.834Z,2.30
2023-03-05T21:58:37.160Z,2.38
2023-03-05T22:01:05.678Z,1.83
2023-03-05T22:03:33.717Z,3.05
2023-03-05T22:06:01.941Z,2.17
2023-03-05T22:08:30.095Z,2.40
2023-03-05T22:10:57.971Z,2.60
2023-03-05T22:13:25.955Z,3.17
2023-03-05T22:15:57.022Z,5.07
2023-03-05T22:18:27.495Z,6.60
2023-03-05T22:20:56.356Z,4.55
2023-03-05T22:23:28.053Z,6.47
2023-03-05T22:26:00.340Z,6.22
2023-03-05T22:28:28.880Z,4.57
2023-03-05T22:30:58.460Z,9.23
2023-03-05T22:33:26.953Z,8.07
2023-03-05T22:35:55.099Z,3.78
2023-03-05T22:38:23.572Z,3.72
2023-03-05T22:40:51.851Z,5.57
2023-03-05T22:43:21.123Z,4.63
2023-03-05T22:45:49.100Z,6.30
2023-03-05T22:48:18.375Z,6.88
2023-03-05T22:50:46.288Z,5.45
2023-03-05T22:53:14.237Z,6.28
2023-03-05T22:55:42.810Z,6.43
2023-03-05T22:58:10.875Z,6.95
2023-03-05T23:00:38.882Z,3.88
2023-03-05T23:03:07.301Z,6.18
2023-03-05T23:05:38.897Z,3.03
2023-03-05T23:08:07.298Z,3.88
2023-03-05T23:10:35.483Z,3.78
2023-03-05T23:13:03.652Z,3.35
2023-03-05T23:15:34.122Z,4.38
2023-03-05T23:18:02.946Z,3.80
2023-03-05T23:20:33.527Z,5.03
2023-03-05T23:23:04.520Z,3.70
2023-03-05T23:25:34.776Z,4.40
2023-03-05T23:28:03.484Z,2.92
2023-03-05T23:30:32.170Z,2.63
2023-03-05T23:33:04.031Z,4.43
2023-03-05T23:35:34.886Z,3.97
2023-03-05T23:38:06.372Z,4.70
2023-03-05T23:40:36.838Z,4.40
2023-03-05T23:43:05.387Z,3.83
2023-03-05T23:45:33.445Z,3.05
2023-03-05T23:48:01.771Z,4.47
2023-03-05T23:50:31.425Z,4.30
2023-03-05T23:53:01.985Z,4.35
2023-03-05T23:55:33.578Z,3.65
2023-03-05T23:58:01.935Z,3.47
